sensor_id;sensor_type;location;lat;lon;timestamp;P1;durP1;ratioP1;P2;durP2;ratioP2
56307;SDS011;42217;50.422;7.210;2023-04-29T00:01:52;85.85;;;82.00;;
56307;SDS011;42217;50.422;7.210;2023-04-29T00:04:22;79.22;;;75.60;;
56307;SDS011;42217;50.422;7.210;2023-04-29T00:06:49;76.28;;;72.38;;
56307;SDS011;42217;50.422;7.210;2023-04-29T00:09:15;80.15;;;76.45;;
56307;SDS011;42217;50.422;7.210;2023-04-29T00:11:40;81.25;;;77.55;;
56307;SDS011;42217;50.422;7.210;2023-04-29T00:14:06;83.45;;;79.55;;
56307;SDS011;42217;50.422;7.210;2023-04-29T00:16:32;81.45;;;77.60;;
56307;SDS011;42217;50.422;7.210;2023-04-29T00:18:57;79.10;;;75.45;;
56307;SDS011;42217;50.422;7.210;2023-04-29T00:21:23;79.78;;;75.85;;
56307;SDS011;42217;50.422;7.210;2023-04-29T00:23:51;86.13;;;82.07;;
56307;SDS011;42217;50.422;7.210;2023-04-29T00:26:17;84.93;;;81.13;;
56307;SDS011;42217;50.422;7.210;2023-04-29T00:28:43;114.93;;;109.35;;
56307;SDS011;42217;50.422;7.210;2023-04-29T00:31:08;103.75;;;98.80;;
56307;SDS011;42217;50.422;7.210;2023-04-29T00:33:34;82.50;;;78.43;;
56307;SDS011;42217;50.422;7.210;2023-04-29T00:36:00;88.70;;;84.30;;
56307;SDS011;42217;50.422;7.210;2023-04-29T00:38:27;87.43;;;83.13;;
56307;SDS011;42217;50.422;7.210;2023-04-29T00:40:52;96.15;;;91.25;;
56307;SDS011;42217;50.422;7.210;2023-04-29T00:43:19;106.18;;;100.60;;
56307;SDS011;42217;50.422;7.210;2023-04-29T00:45:45;95.93;;;90.87;;
56307;SDS011;42217;50.422;7.210;2023-04-29T00:48:11;107.00;;;101.50;;
56307;SDS011;42217;50.422;7.210;2023-04-29T00:50:39;111.80;;;105.97;;
56307;SDS011;42217;50.422;7.210;2023-04-29T00:53:06;99.50;;;94.20;;
56307;SDS011;42217;50.422;7.210;2023-04-29T00:55:32;100.77;;;95.07;;
56307;SDS011;42217;50.422;7.210;2023-04-29T00:57:59;170.43;;;160.87;;
56307;SDS011;42217;50.422;7.210;2023-04-29T01:00:26;101.43;;;96.13;;
56307;SDS011;42217;50.422;7.210;2023-04-29T01:02:53;100.77;;;95.47;;
56307;SDS011;42217;50.422;7.210;2023-04-29T01:05:22;95.17;;;89.90;;
56307;SDS011;42217;50.422;7.210;2023-04-29T01:07:55;103.10;;;97.40;;
56307;SDS011;42217;50.422;7.210;2023-04-29T01:10:38;97.37;;;92.23;;
56307;SDS011;42217;50.422;7.210;2023-04-29T01:18:21;101.07;;;95.57;;
56307;SDS011;42217;50.422;7.210;2023-04-29T01:21:04;98.77;;;93.10;;
56307;SDS011;42217;50.422;7.210;2023-04-29T01:23:30;100.47;;;94.87;;
56307;SDS011;42217;50.422;7.210;2023-04-29T01:25:56;99.47;;;93.93;;
56307;SDS011;42217;50.422;7.210;2023-04-29T01:28:39;98.00;;;92.80;;
56307;SDS011;42217;50.422;7.210;2023-04-29T01:31:25;103.53;;;97.95;;
56307;SDS011;42217;50.422;7.210;2023-04-29T01:36:35;100.75;;;95.25;;
56307;SDS011;42217;50.422;7.210;2023-04-29T01:42:38;97.30;;;92.30;;
56307;SDS011;42217;50.422;7.210;2023-04-29T01:45:09;103.20;;;97.95;;
56307;SDS011;42217;50.422;7.210;2023-04-29T01:47:39;116.47;;;110.20;;
56307;SDS011;42217;50.422;7.210;2023-04-29T01:50:06;109.32;;;103.22;;
56307;SDS011;42217;50.422;7.210;2023-04-29T01:52:31;101.90;;;96.32;;
56307;SDS011;42217;50.422;7.210;2023-04-29T01:54:57;151.65;;;143.82;;
56307;SDS011;42217;50.422;7.210;2023-04-29T01:57:23;198.88;;;189.23;;
56307;SDS011;42217;50.422;7.210;2023-04-29T01:59:48;156.50;;;148.73;;
56307;SDS011;42217;50.422;7.210;2023-04-29T02:02:15;148.83;;;141.33;;
56307;SDS011;42217;50.422;7.210;2023-04-29T02:04:45;118.43;;;111.93;;
56307;SDS011;42217;50.422;7.210;2023-04-29T02:07:10;143.65;;;135.45;;
56307;SDS011;42217;50.422;7.210;2023-04-29T02:09:36;110.97;;;104.35;;
56307;SDS011;42217;50.422;7.210;2023-04-29T02:12:02;116.60;;;109.83;;
56307;SDS011;42217;50.422;7.210;2023-04-29T02:14:28;119.00;;;112.07;;
56307;SDS011;42217;50.422;7.210;2023-04-29T02:16:55;130.97;;;123.33;;
56307;SDS011;42217;50.422;7.210;2023-04-29T02:19:21;121.90;;;115.10;;
56307;SDS011;42217;50.422;7.210;2023-04-29T02:21:46;133.63;;;126.00;;
56307;SDS011;42217;50.422;7.210;2023-04-29T02:24:12;133.83;;;126.13;;
56307;SDS011;42217;50.422;7.210;2023-04-29T02:26:38;121.37;;;114.23;;
56307;SDS011;42217;50.422;7.210;2023-04-29T02:29:03;121.87;;;114.63;;
56307;SDS011;42217;50.422;7.210;2023-04-29T02:31:29;177.27;;;167.13;;
56307;SDS011;42217;50.422;7.210;2023-04-29T02:33:55;128.73;;;121.20;;
56307;SDS011;42217;50.422;7.210;2023-04-29T02:36:21;118.37;;;111.50;;
56307;SDS011;42217;50.422;7.210;2023-04-29T02:38:47;124.43;;;117.07;;
56307;SDS011;42217;50.422;7.210;2023-04-29T02:41:15;118.67;;;111.60;;
56307;SDS011;42217;50.422;7.210;2023-04-29T02:43:42;127.93;;;119.97;;
56307;SDS011;42217;50.422;7.210;2023-04-29T02:46:08;142.83;;;134.97;;
56307;SDS011;42217;50.422;7.210;2023-04-29T02:48:34;193.33;;;182.33;;
56307;SDS011;42217;50.422;7.210;2023-04-29T02:51:00;125.63;;;118.13;;
56307;SDS011;42217;50.422;7.210;2023-04-29T02:53:26;121.07;;;114.30;;
56307;SDS011;42217;50.422;7.210;2023-04-29T02:55:52;137.17;;;129.50;;
56307;SDS011;42217;50.422;7.210;2023-04-29T02:58:17;119.63;;;113.03;;
56307;SDS011;42217;50.422;7.210;2023-04-29T03:00:43;125.43;;;118.50;;
56307;SDS011;42217;50.422;7.210;2023-04-29T03:03:09;135.50;;;128.17;;
56307;SDS011;42217;50.422;7.210;2023-04-29T03:05:34;125.00;;;118.03;;
56307;SDS011;42217;50.422;7.210;2023-04-29T03:08:00;124.43;;;116.67;;
56307;SDS011;42217;50.422;7.210;2023-04-29T03:10:28;129.40;;;122.10;;
56307;SDS011;42217;50.422;7.210;2023-04-29T03:12:53;141.13;;;133.80;;
56307;SDS011;42217;50.422;7.210;2023-04-29T03:15:19;137.57;;;130.30;;
56307;SDS011;42217;50.422;7.210;2023-04-29T03:17:45;147.67;;;139.93;;
56307;SDS011;42217;50.422;7.210;2023-04-29T03:20:10;130.20;;;123.63;;
56307;SDS011;42217;50.422;7.210;2023-04-29T03:22:36;125.77;;;119.30;;
56307;SDS011;42217;50.422;7.210;2023-04-29T03:25:03;287.50;;;271.20;;
56307;SDS011;42217;50.422;7.210;2023-04-29T03:27:29;156.33;;;148.03;;
56307;SDS011;42217;50.422;7.210;2023-04-29T03:29:54;122.70;;;116.37;;
56307;SDS011;42217;50.422;7.210;2023-04-29T03:32:20;131.23;;;124.70;;
56307;SDS011;42217;50.422;7.210;2023-04-29T03:34:46;136.67;;;129.73;;
56307;SDS011;42217;50.422;7.210;2023-04-29T03:37:13;163.60;;;155.27;;
56307;SDS011;42217;50.422;7.210;2023-04-29T03:39:40;162.73;;;154.27;;
56307;SDS011;42217;50.422;7.210;2023-04-29T03:42:06;157.20;;;149.37;;
56307;SDS011;42217;50.422;7.210;2023-04-29T03:44:32;134.40;;;127.63;;
56307;SDS011;42217;50.422;7.210;2023-04-29T03:46:58;142.40;;;135.03;;
56307;SDS011;42217;50.422;7.210;2023-04-29T03:49:23;150.57;;;143.07;;
56307;SDS011;42217;50.422;7.210;2023-04-29T03:51:49;134.47;;;127.60;;
56307;SDS011;42217;50.422;7.210;2023-04-29T03:54:15;155.57;;;147.23;;
56307;SDS011;42217;50.422;7.210;2023-04-29T03:56:41;138.90;;;131.80;;
56307;SDS011;42217;50.422;7.210;2023-04-29T03:59:07;132.63;;;126.00;;
56307;SDS011;42217;50.422;7.210;2023-04-29T04:01:33;141.50;;;134.03;;
56307;SDS011;42217;50.422;7.210;2023-04-29T04:03:59;140.57;;;133.40;;
56307;SDS011;42217;50.422;7.210;2023-04-29T04:06:24;132.60;;;125.97;;
56307;SDS011;42217;50.422;7.210;2023-04-29T04:08:50;135.37;;;128.23;;
56307;SDS011;42217;50.422;7.210;2023-04-29T04:11:16;129.63;;;122.77;;
56307;SDS011;42217;50.422;7.210;2023-04-29T04:13:42;133.00;;;126.03;;
56307;SDS011;42217;50.422;7.210;2023-04-29T04:16:08;140.27;;;133.20;;
56307;SDS011;42217;50.422;7.210;2023-04-29T04:18:38;139.73;;;131.37;;
56307;SDS011;42217;50.422;7.210;2023-04-29T04:21:07;124.20;;;117.53;;
56307;SDS011;42217;50.422;7.210;2023-04-29T04:23:33;143.73;;;136.13;;
56307;SDS011;42217;50.422;7.210;2023-04-29T04:26:02;141.23;;;133.87;;
56307;SDS011;42217;50.422;7.210;2023-04-29T04:28:27;139.90;;;133.00;;
56307;SDS011;42217;50.422;7.210;2023-04-29T04:30:53;128.37;;;121.90;;
56307;SDS011;42217;50.422;7.210;2023-04-29T04:33:19;135.00;;;128.13;;
56307;SDS011;42217;50.422;7.210;2023-04-29T04:35:45;147.70;;;140.60;;
56307;SDS011;42217;50.422;7.210;2023-04-29T04:38:11;132.63;;;126.33;;
56307;SDS011;42217;50.422;7.210;2023-04-29T04:40:39;131.70;;;125.40;;
56307;SDS011;42217;50.422;7.210;2023-04-29T04:43:06;135.93;;;129.17;;
56307;SDS011;42217;50.422;7.210;2023-04-29T04:45:31;151.77;;;143.90;;
56307;SDS011;42217;50.422;7.210;2023-04-29T04:47:57;140.87;;;133.97;;
56307;SDS011;42217;50.422;7.210;2023-04-29T04:50:23;129.07;;;122.47;;
56307;SDS011;42217;50.422;7.210;2023-04-29T04:52:48;132.87;;;126.00;;
56307;SDS011;42217;50.422;7.210;2023-04-29T04:55:14;153.07;;;145.40;;
56307;SDS011;42217;50.422;7.210;2023-04-29T04:57:40;129.57;;;122.47;;
56307;SDS011;42217;50.422;7.210;2023-04-29T05:00:05;136.13;;;129.00;;
56307;SDS011;42217;50.422;7.210;2023-04-29T05:02:32;124.63;;;118.00;;
56307;SDS011;42217;50.422;7.210;2023-04-29T05:04:58;134.27;;;127.50;;
56307;SDS011;42217;50.422;7.210;2023-04-29T05:07:24;145.83;;;138.30;;
56307;SDS011;42217;50.422;7.210;2023-04-29T05:09:49;149.30;;;141.73;;
56307;SDS011;42217;50.422;7.210;2023-04-29T05:12:15;142.40;;;135.20;;
56307;SDS011;42217;50.422;7.210;2023-04-29T05:14:41;127.80;;;121.07;;
56307;SDS011;42217;50.422;7.210;2023-04-29T05:17:07;135.73;;;128.57;;
56307;SDS011;42217;50.422;7.210;2023-04-29T05:19:34;135.83;;;128.87;;
56307;SDS011;42217;50.422;7.210;2023-04-29T05:22:01;135.60;;;128.83;;
56307;SDS011;42217;50.422;7.210;2023-04-29T05:24:26;132.33;;;125.50;;
56307;SDS011;42217;50.422;7.210;2023-04-29T05:26:54;140.70;;;133.23;;
56307;SDS011;42217;50.422;7.210;2023-04-29T05:29:20;148.40;;;139.97;;
56307;SDS011;42217;50.422;7.210;2023-04-29T05:31:45;151.27;;;142.53;;
56307;SDS011;42217;50.422;7.210;2023-04-29T05:34:11;149.43;;;140.10;;
56307;SDS011;42217;50.422;7.210;2023-04-29T05:36:37;173.17;;;162.73;;
56307;SDS011;42217;50.422;7.210;2023-04-29T05:39:03;169.17;;;158.10;;
56307;SDS011;42217;50.422;7.210;2023-04-29T05:41:28;148.93;;;139.50;;
56307;SDS011;42217;50.422;7.210;2023-04-29T05:43:54;157.10;;;147.13;;
56307;SDS011;42217;50.422;7.210;2023-04-29T05:46:20;164.77;;;153.93;;
56307;SDS011;42217;50.422;7.210;2023-04-29T05:48:47;169.87;;;159.13;;
56307;SDS011;42217;50.422;7.210;2023-04-29T05:51:12;166.67;;;154.37;;
56307;SDS011;42217;50.422;7.210;2023-04-29T05:53:38;166.63;;;155.63;;
56307;SDS011;42217;50.422;7.210;2023-04-29T05:56:07;171.27;;;160.10;;
56307;SDS011;42217;50.422;7.210;2023-04-29T05:58:35;161.77;;;151.37;;
56307;SDS011;42217;50.422;7.210;2023-04-29T06:01:01;183.13;;;172.07;;
56307;SDS011;42217;50.422;7.210;2023-04-29T06:03:27;223.93;;;209.90;;
56307;SDS011;42217;50.422;7.210;2023-04-29T06:05:53;246.57;;;231.97;;
56307;SDS011;42217;50.422;7.210;2023-04-29T06:08:19;216.80;;;203.23;;
56307;SDS011;42217;50.422;7.210;2023-04-29T06:10:45;240.33;;;225.83;;
56307;SDS011;42217;50.422;7.210;2023-04-29T06:13:11;248.27;;;233.20;;
56307;SDS011;42217;50.422;7.210;2023-04-29T06:15:37;254.87;;;239.80;;
56307;SDS011;42217;50.422;7.210;2023-04-29T06:18:03;272.97;;;255.83;;
56307;SDS011;42217;50.422;7.210;2023-04-29T06:20:29;291.37;;;273.73;;
56307;SDS011;42217;50.422;7.210;2023-04-29T06:22:54;280.90;;;263.80;;
56307;SDS011;42217;50.422;7.210;2023-04-29T06:25:20;235.60;;;221.30;;
56307;SDS011;42217;50.422;7.210;2023-04-29T06:27:46;258.10;;;242.33;;
56307;SDS011;42217;50.422;7.210;2023-04-29T06:30:13;278.83;;;262.53;;
56307;SDS011;42217;50.422;7.210;2023-04-29T06:32:39;326.23;;;307.20;;
56307;SDS011;42217;50.422;7.210;2023-04-29T06:35:04;291.83;;;275.10;;
56307;SDS011;42217;50.422;7.210;2023-04-29T06:37:31;338.50;;;319.63;;
56307;SDS011;42217;50.422;7.210;2023-04-29T06:39:56;287.07;;;271.07;;
56307;SDS011;42217;50.422;7.210;2023-04-29T06:42:22;297.23;;;280.90;;
56307;SDS011;42217;50.422;7.210;2023-04-29T06:44:48;315.60;;;297.83;;
56307;SDS011;42217;50.422;7.210;2023-04-29T06:47:13;334.43;;;316.87;;
56307;SDS011;42217;50.422;7.210;2023-04-29T06:49:39;403.03;;;381.53;;
56307;SDS011;42217;50.422;7.210;2023-04-29T06:52:07;492.83;;;465.60;;
56307;SDS011;42217;50.422;7.210;2023-04-29T06:54:33;545.73;;;515.47;;
56307;SDS011;42217;50.422;7.210;2023-04-29T06:56:59;558.17;;;527.07;;
56307;SDS011;42217;50.422;7.210;2023-04-29T06:59:24;560.33;;;530.10;;
56307;SDS011;42217;50.422;7.210;2023-04-29T07:01:50;526.73;;;498.63;;
56307;SDS011;42217;50.422;7.210;2023-04-29T07:04:16;599.13;;;565.20;;
56307;SDS011;42217;50.422;7.210;2023-04-29T07:06:41;524.03;;;496.80;;
56307;SDS011;42217;50.422;7.210;2023-04-29T07:09:10;450.13;;;427.03;;
56307;SDS011;42217;50.422;7.210;2023-04-29T07:11:38;470.40;;;446.83;;
56307;SDS011;42217;50.422;7.210;2023-04-29T07:14:04;504.97;;;479.20;;
56307;SDS011;42217;50.422;7.210;2023-04-29T07:16:29;450.97;;;427.87;;
56307;SDS011;42217;50.422;7.210;2023-04-29T07:18:55;411.40;;;390.60;;
56307;SDS011;42217;50.422;7.210;2023-04-29T07:21:21;548.80;;;519.27;;
56307;SDS011;42217;50.422;7.210;2023-04-29T07:23:46;407.20;;;386.87;;
56307;SDS011;42217;50.422;7.210;2023-04-29T07:26:12;376.63;;;357.67;;
56307;SDS011;42217;50.422;7.210;2023-04-29T07:28:42;498.07;;;471.73;;
56307;SDS011;42217;50.422;7.210;2023-04-29T07:31:09;561.40;;;530.50;;
56307;SDS011;42217;50.422;7.210;2023-04-29T07:33:35;392.07;;;372.37;;
56307;SDS011;42217;50.422;7.210;2023-04-29T07:36:01;399.30;;;378.93;;
56307;SDS011;42217;50.422;7.210;2023-04-29T07:38:28;351.60;;;334.03;;
56307;SDS011;42217;50.422;7.210;2023-04-29T07:40:54;301.57;;;286.57;;
56307;SDS011;42217;50.422;7.210;2023-04-29T07:43:20;384.97;;;365.60;;
56307;SDS011;42217;50.422;7.210;2023-04-29T07:45:46;493.10;;;467.37;;
56307;SDS011;42217;50.422;7.210;2023-04-29T07:48:12;525.27;;;497.60;;
56307;SDS011;42217;50.422;7.210;2023-04-29T07:50:38;538.77;;;509.80;;
56307;SDS011;42217;50.422;7.210;2023-04-29T07:53:04;517.20;;;490.10;;
56307;SDS011;42217;50.422;7.210;2023-04-29T07:55:30;483.60;;;457.87;;
56307;SDS011;42217;50.422;7.210;2023-04-29T07:57:56;485.83;;;460.43;;
56307;SDS011;42217;50.422;7.210;2023-04-29T08:00:22;563.73;;;533.40;;
56307;SDS011;42217;50.422;7.210;2023-04-29T08:02:52;531.70;;;503.53;;
56307;SDS011;42217;50.422;7.210;2023-04-29T08:05:18;511.43;;;484.40;;
56307;SDS011;42217;50.422;7.210;2023-04-29T08:07:48;528.27;;;499.93;;
56307;SDS011;42217;50.422;7.210;2023-04-29T08:10:14;540.33;;;511.80;;
56307;SDS011;42217;50.422;7.210;2023-04-29T08:12:41;517.80;;;490.60;;
56307;SDS011;42217;50.422;7.210;2023-04-29T08:15:10;545.73;;;516.67;;
56307;SDS011;42217;50.422;7.210;2023-04-29T08:17:35;500.77;;;474.63;;
56307;SDS011;42217;50.422;7.210;2023-04-29T08:20:01;529.20;;;501.70;;
56307;SDS011;42217;50.422;7.210;2023-04-29T08:22:27;551.50;;;522.43;;
56307;SDS011;42217;50.422;7.210;2023-04-29T08:24:53;552.23;;;522.83;;
56307;SDS011;42217;50.422;7.210;2023-04-29T08:27:19;510.77;;;484.43;;
56307;SDS011;42217;50.422;7.210;2023-04-29T08:29:45;487.27;;;462.47;;
56307;SDS011;42217;50.422;7.210;2023-04-29T08:32:11;468.83;;;444.73;;
56307;SDS011;42217;50.422;7.210;2023-04-29T08:34:37;501.30;;;475.53;;
56307;SDS011;42217;50.422;7.210;2023-04-29T08:37:03;500.70;;;474.73;;
56307;SDS011;42217;50.422;7.210;2023-04-29T08:39:29;445.70;;;423.53;;
56307;SDS011;42217;50.422;7.210;2023-04-29T08:41:58;431.93;;;410.33;;
56307;SDS011;42217;50.422;7.210;2023-04-29T08:44:27;351.67;;;335.00;;
56307;SDS011;42217;50.422;7.210;2023-04-29T08:46:54;126.53;;;120.27;;
56307;SDS011;42217;50.422;7.210;2023-04-29T08:49:21;98.20;;;93.03;;
56307;SDS011;42217;50.422;7.210;2023-04-29T08:51:47;89.83;;;84.87;;
56307;SDS011;42217;50.422;7.210;2023-04-29T08:54:15;89.40;;;84.67;;
56307;SDS011;42217;50.422;7.210;2023-04-29T08:56:42;98.57;;;93.50;;
56307;SDS011;42217;50.422;7.210;2023-04-29T08:59:09;95.23;;;90.37;;
56307;SDS011;42217;50.422;7.210;2023-04-29T09:01:35;103.07;;;97.07;;
56307;SDS011;42217;50.422;7.210;2023-04-29T09:07:00;72.93;;;68.90;;
56307;SDS011;42217;50.422;7.210;2023-04-29T09:09:28;78.87;;;74.13;;
56307;SDS011;42217;50.422;7.210;2023-04-29T09:11:54;78.23;;;74.13;;
56307;SDS011;42217;50.422;7.210;2023-04-29T09:14:20;75.77;;;71.67;;
56307;SDS011;42217;50.422;7.210;2023-04-29T09:16:48;83.00;;;78.03;;
56307;SDS011;42217;50.422;7.210;2023-04-29T09:19:29;93.90;;;88.80;;
56307;SDS011;42217;50.422;7.210;2023-04-29T09:21:59;102.90;;;96.83;;
56307;SDS011;42217;50.422;7.210;2023-04-29T09:24:27;101.60;;;95.53;;
56307;SDS011;42217;50.422;7.210;2023-04-29T09:26:54;103.67;;;97.77;;
56307;SDS011;42217;50.422;7.210;2023-04-29T09:29:20;105.13;;;99.20;;
56307;SDS011;42217;50.422;7.210;2023-04-29T09:31:46;87.87;;;82.97;;
56307;SDS011;42217;50.422;7.210;2023-04-29T09:34:13;91.13;;;86.10;;
56307;SDS011;42217;50.422;7.210;2023-04-29T09:36:44;102.23;;;96.53;;
56307;SDS011;42217;50.422;7.210;2023-04-29T09:44:20;99.30;;;93.37;;
56307;SDS011;42217;50.422;7.210;2023-04-29T09:46:56;95.37;;;89.50;;
56307;SDS011;42217;50.422;7.210;2023-04-29T09:49:57;113.27;;;106.17;;
56307;SDS011;42217;50.422;7.210;2023-04-29T09:52:16;100.80;;;95.07;;
56307;SDS011;42217;50.422;7.210;2023-04-29T09:54:42;100.80;;;94.80;;
56307;SDS011;42217;50.422;7.210;2023-04-29T09:57:09;100.10;;;94.17;;
56307;SDS011;42217;50.422;7.210;2023-04-29T09:59:37;95.07;;;89.57;;
56307;SDS011;42217;50.422;7.210;2023-04-29T10:02:13;93.20;;;87.60;;
56307;SDS011;42217;50.422;7.210;2023-04-29T10:04:40;90.03;;;84.83;;
56307;SDS011;42217;50.422;7.210;2023-04-29T10:07:08;98.30;;;92.80;;
56307;SDS011;42217;50.422;7.210;2023-04-29T10:09:40;88.10;;;82.80;;
56307;SDS011;42217;50.422;7.210;2023-04-29T10:12:06;104.53;;;98.60;;
56307;SDS011;42217;50.422;7.210;2023-04-29T10:14:34;123.63;;;117.00;;
56307;SDS011;42217;50.422;7.210;2023-04-29T10:17:50;126.97;;;120.37;;
56307;SDS011;42217;50.422;7.210;2023-04-29T10:20:07;191.20;;;181.87;;
56307;SDS011;42217;50.422;7.210;2023-04-29T10:22:39;182.10;;;173.00;;
56307;SDS011;42217;50.422;7.210;2023-04-29T10:25:11;199.57;;;189.70;;
56307;SDS011;42217;50.422;7.210;2023-04-29T10:27:41;159.00;;;151.18;;
56307;SDS011;42217;50.422;7.210;2023-04-29T10:30:08;105.88;;;100.35;;
56307;SDS011;42217;50.422;7.210;2023-04-29T10:32:40;88.38;;;83.78;;
56307;SDS011;42217;50.422;7.210;2023-04-29T10:35:08;77.40;;;73.38;;
56307;SDS011;42217;50.422;7.210;2023-04-29T10:37:39;70.97;;;67.13;;
56307;SDS011;42217;50.422;7.210;2023-04-29T10:40:11;95.20;;;89.82;;
56307;SDS011;42217;50.422;7.210;2023-04-29T10:45:19;78.33;;;74.17;;
56307;SDS011;42217;50.422;7.210;2023-04-29T10:48:19;85.00;;;80.43;;
56307;SDS011;42217;50.422;7.210;2023-04-29T10:53:11;105.83;;;99.80;;
56307;SDS011;42217;50.422;7.210;2023-04-29T10:55:40;94.97;;;89.73;;
56307;SDS011;42217;50.422;7.210;2023-04-29T11:01:02;114.23;;;108.23;;
56307;SDS011;42217;50.422;7.210;2023-04-29T11:03:44;134.77;;;127.63;;
56307;SDS011;42217;50.422;7.210;2023-04-29T11:07:09;118.40;;;112.07;;
56307;SDS011;42217;50.422;7.210;2023-04-29T11:09:30;151.97;;;143.87;;
56307;SDS011;42217;50.422;7.210;2023-04-29T11:12:03;149.67;;;141.50;;
56307;SDS011;42217;50.422;7.210;2023-04-29T11:14:30;149.50;;;141.77;;
56307;SDS011;42217;50.422;7.210;2023-04-29T11:17:06;196.70;;;186.00;;
56307;SDS011;42217;50.422;7.210;2023-04-29T11:19:33;170.05;;;161.20;;
56307;SDS011;42217;50.422;7.210;2023-04-29T11:22:03;181.07;;;171.60;;
56307;SDS011;42217;50.422;7.210;2023-04-29T11:24:36;176.23;;;167.27;;
56307;SDS011;42217;50.422;7.210;2023-04-29T11:27:16;160.67;;;151.93;;
56307;SDS011;42217;50.422;7.210;2023-04-29T11:29:44;161.13;;;152.63;;
56307;SDS011;42217;50.422;7.210;2023-04-29T11:32:11;162.40;;;153.83;;
56307;SDS011;42217;50.422;7.210;2023-04-29T11:34:37;148.70;;;140.77;;
56307;SDS011;42217;50.422;7.210;2023-04-29T11:37:06;139.50;;;131.77;;
56307;SDS011;42217;50.422;7.210;2023-04-29T11:39:32;122.00;;;115.00;;
56307;SDS011;42217;50.422;7.210;2023-04-29T11:42:05;124.77;;;117.57;;
56307;SDS011;42217;50.422;7.210;2023-04-29T11:44:35;110.82;;;103.78;;
56307;SDS011;42217;50.422;7.210;2023-04-29T11:47:07;102.60;;;96.53;;
56307;SDS011;42217;50.422;7.210;2023-04-29T11:49:33;104.60;;;98.40;;
56307;SDS011;42217;50.422;7.210;2023-04-29T11:52:01;91.87;;;86.33;;
56307;SDS011;42217;50.422;7.210;2023-04-29T11:54:27;87.47;;;82.20;;
56307;SDS011;42217;50.422;7.210;2023-04-29T11:56:54;90.18;;;84.85;;
56307;SDS011;42217;50.422;7.210;2023-04-29T11:59:21;90.97;;;85.57;;
56307;SDS011;42217;50.422;7.210;2023-04-29T12:01:50;87.67;;;81.87;;
56307;SDS011;42217;50.422;7.210;2023-04-29T12:04:16;95.13;;;89.37;;
56307;SDS011;42217;50.422;7.210;2023-04-29T12:06:43;88.80;;;83.20;;
56307;SDS011;42217;50.422;7.210;2023-04-29T12:09:09;91.88;;;86.47;;
56307;SDS011;42217;50.422;7.210;2023-04-29T12:11:38;97.00;;;91.25;;
56307;SDS011;42217;50.422;7.210;2023-04-29T12:14:04;103.57;;;97.47;;
56307;SDS011;42217;50.422;7.210;2023-04-29T12:16:32;93.23;;;86.77;;
56307;SDS011;42217;50.422;7.210;2023-04-29T12:18:58;104.05;;;97.82;;
56307;SDS011;42217;50.422;7.210;2023-04-29T12:21:24;95.05;;;89.22;;
56307;SDS011;42217;50.422;7.210;2023-04-29T12:23:51;92.65;;;87.03;;
56307;SDS011;42217;50.422;7.210;2023-04-29T12:26:17;95.55;;;89.72;;
56307;SDS011;42217;50.422;7.210;2023-04-29T12:28:45;86.78;;;81.43;;
56307;SDS011;42217;50.422;7.210;2023-04-29T12:31:13;100.05;;;94.07;;
56307;SDS011;42217;50.422;7.210;2023-04-29T12:33:41;128.13;;;120.63;;
56307;SDS011;42217;50.422;7.210;2023-04-29T12:36:17;89.32;;;83.80;;
56307;SDS011;42217;50.422;7.210;2023-04-29T12:38:43;83.43;;;78.20;;
56307;SDS011;42217;50.422;7.210;2023-04-29T12:41:09;106.63;;;100.35;;
56307;SDS011;42217;50.422;7.210;2023-04-29T12:43:38;106.20;;;99.45;;
56307;SDS011;42217;50.422;7.210;2023-04-29T12:46:06;131.30;;;123.67;;
56307;SDS011;42217;50.422;7.210;2023-04-29T12:48:32;139.63;;;131.10;;
56307;SDS011;42217;50.422;7.210;2023-04-29T12:51:07;121.78;;;113.75;;
56307;SDS011;42217;50.422;7.210;2023-04-29T12:53:36;145.68;;;136.90;;
56307;SDS011;42217;50.422;7.210;2023-04-29T12:56:02;142.43;;;133.40;;
56307;SDS011;42217;50.422;7.210;2023-04-29T12:58:29;138.80;;;130.20;;
56307;SDS011;42217;50.422;7.210;2023-04-29T13:00:56;145.07;;;135.02;;
56307;SDS011;42217;50.422;7.210;2023-04-29T13:03:22;163.57;;;154.03;;
56307;SDS011;42217;50.422;7.210;2023-04-29T13:05:48;163.10;;;154.05;;
56307;SDS011;42217;50.422;7.210;2023-04-29T13:08:17;196.23;;;184.47;;
56307;SDS011;42217;50.422;7.210;2023-04-29T13:10:43;213.57;;;201.63;;
56307;SDS011;42217;50.422;7.210;2023-04-29T13:13:09;205.27;;;193.30;;
56307;SDS011;42217;50.422;7.210;2023-04-29T13:15:35;203.33;;;191.97;;
56307;SDS011;42217;50.422;7.210;2023-04-29T13:18:03;211.77;;;199.43;;
56307;SDS011;42217;50.422;7.210;2023-04-29T13:20:29;236.97;;;223.73;;
56307;SDS011;42217;50.422;7.210;2023-04-29T13:22:55;218.60;;;206.10;;
56307;SDS011;42217;50.422;7.210;2023-04-29T13:25:20;220.93;;;208.20;;
56307;SDS011;42217;50.422;7.210;2023-04-29T13:27:46;220.03;;;207.30;;
56307;SDS011;42217;50.422;7.210;2023-04-29T13:30:12;215.63;;;203.27;;
56307;SDS011;42217;50.422;7.210;2023-04-29T13:32:37;222.63;;;209.73;;
56307;SDS011;42217;50.422;7.210;2023-04-29T13:35:04;212.43;;;200.17;;
56307;SDS011;42217;50.422;7.210;2023-04-29T13:37:31;170.43;;;159.03;;
56307;SDS011;42217;50.422;7.210;2023-04-29T13:39:57;165.53;;;154.67;;
56307;SDS011;42217;50.422;7.210;2023-04-29T13:42:22;179.67;;;168.30;;
56307;SDS011;42217;50.422;7.210;2023-04-29T13:44:48;159.47;;;148.80;;
56307;SDS011;42217;50.422;7.210;2023-04-29T13:47:14;152.17;;;141.87;;
56307;SDS011;42217;50.422;7.210;2023-04-29T13:49:41;161.43;;;149.90;;
56307;SDS011;42217;50.422;7.210;2023-04-29T13:52:10;146.87;;;136.60;;
56307;SDS011;42217;50.422;7.210;2023-04-29T13:54:36;138.77;;;129.07;;
56307;SDS011;42217;50.422;7.210;2023-04-29T13:57:03;133.80;;;123.93;;
56307;SDS011;42217;50.422;7.210;2023-04-29T13:59:32;195.30;;;182.93;;
56307;SDS011;42217;50.422;7.210;2023-04-29T14:01:59;151.40;;;141.03;;
56307;SDS011;42217;50.422;7.210;2023-04-29T14:04:25;138.30;;;128.40;;
56307;SDS011;42217;50.422;7.210;2023-04-29T14:06:52;132.23;;;122.27;;
56307;SDS011;42217;50.422;7.210;2023-04-29T14:09:19;140.80;;;130.87;;
56307;SDS011;42217;50.422;7.210;2023-04-29T14:11:46;149.20;;;139.20;;
56307;SDS011;42217;50.422;7.210;2023-04-29T14:14:12;138.30;;;128.67;;
56307;SDS011;42217;50.422;7.210;2023-04-29T14:16:38;148.90;;;139.07;;
56307;SDS011;42217;50.422;7.210;2023-04-29T14:19:04;140.77;;;130.90;;
56307;SDS011;42217;50.422;7.210;2023-04-29T14:21:31;133.30;;;124.03;;
56307;SDS011;42217;50.422;7.210;2023-04-29T14:23:57;134.57;;;125.77;;
56307;SDS011;42217;50.422;7.210;2023-04-29T14:26:24;133.73;;;124.10;;
56307;SDS011;42217;50.422;7.210;2023-04-29T14:28:51;134.60;;;124.63;;
56307;SDS011;42217;50.422;7.210;2023-04-29T14:31:26;133.95;;;124.25;;